createdAt,value
2023-03-12T00:00:18.822Z,50.22
2023-03-12T00:02:50.379Z,49.68
2023-03-12T00:05:17.495Z,50.95
2023-03-12T00:07:44.924Z,53.50
2023-03-12T00:10:12.227Z,52.73
2023-03-12T00:12:39.248Z,54.18
2023-03-12T00:15:07.294Z,55.10
2023-03-12T00:17:34.595Z,55.78
2023-03-12T00:20:01.516Z,54.65
2023-03-12T00:22:28.638Z,54.28
2023-03-12T00:24:57.677Z,55.83
2023-03-12T00:27:34.790Z,55.74
2023-03-12T00:30:09.347Z,58.21
2023-03-12T00:32:36.760Z,56.62
2023-03-12T00:35:04.484Z,57.11
2023-03-12T00:37:33.196Z,55.59
2023-03-12T00:40:05.614Z,57.19
2023-03-12T00:42:32.746Z,55.67
2023-03-12T00:44:59.726Z,54.57
2023-03-12T00:47:27.412Z,56.54
2023-03-12T00:49:54.491Z,56.12
2023-03-12T00:52:24.332Z,56.02
2023-03-12T00:54:51.252Z,57.82
2023-03-12T00:57:18.119Z,57.56
2023-03-12T00:59:45.041Z,55.82
2023-03-12T01:02:13.489Z,56.36
2023-03-12T01:04:40.524Z,54.99
2023-03-12T01:07:07.533Z,56.36
2023-03-12T01:09:34.435Z,56.32
2023-03-12T01:12:02.786Z,56.72
2023-03-12T01:14:29.675Z,56.14
2023-03-12T01:16:56.916Z,57.12
2023-03-12T01:19:23.950Z,57.97
2023-03-12T01:21:50.846Z,56.57
2023-03-12T01:24:18.043Z,56.22
2023-03-12T01:26:44.965Z,55.99
2023-03-12T01:29:11.888Z,55.03
2023-03-12T01:31:38.972Z,55.12
2023-03-12T01:34:06.078Z,54.71
2023-03-12T01:36:33.042Z,55.26
2023-03-12T01:39:00.515Z,54.42
2023-03-12T01:41:32.637Z,54.28
2023-03-12T01:44:03.834Z,54.50
2023-03-12T01:46:30.801Z,53.32
2023-03-12T01:49:08.018Z,53.75
2023-03-12T01:51:40.999Z,53.03
2023-03-12T01:54:17.295Z,52.71
2023-03-12T01:56:44.651Z,52.93
2023-03-12T01:59:17.405Z,52.82
2023-03-12T02:01:44.987Z,53.15
2023-03-12T02:04:13.279Z,55.10
2023-03-12T02:06:53.519Z,52.62
2023-03-12T02:09:21.737Z,52.50
2023-03-12T02:11:48.990Z,52.88
2023-03-12T02:14:16.448Z,53.04
2023-03-12T02:16:44.538Z,53.03
2023-03-12T02:19:50.401Z,53.47
2023-03-12T02:22:17.481Z,53.69
2023-03-12T02:25:32.204Z,52.31
2023-03-12T02:28:00.790Z,52.36
2023-03-12T02:30:30.344Z,52.65
2023-03-12T02:33:00.176Z,54.44
2023-03-12T02:35:27.663Z,55.42
2023-03-12T02:37:56.557Z,55.02
2023-03-12T02:40:39.467Z,55.40
2023-03-12T02:43:08.112Z,55.21
2023-03-12T02:45:36.404Z,55.91
2023-03-12T02:48:04.450Z,57.49
2023-03-12T02:50:31.359Z,58.71
2023-03-12T02:52:58.300Z,57.50
2023-03-12T02:55:25.230Z,58.03
2023-03-12T02:57:52.100Z,58.49
2023-03-12T03:00:19.657Z,59.08
2023-03-12T03:02:46.601Z,59.18
2023-03-12T03:05:13.618Z,59.89
2023-03-12T03:07:40.650Z,60.55
2023-03-12T03:10:08.467Z,61.32
2023-03-12T03:12:36.788Z,61.70
2023-03-12T03:15:04.542Z,61.68
2023-03-12T03:17:31.423Z,61.74
2023-03-12T03:19:58.313Z,60.82
2023-03-12T03:22:25.194Z,61.55
2023-03-12T03:24:54.050Z,62.11
2023-03-12T03:27:21.030Z,61.22
2023-03-12T03:32:15.036Z,61.42
2023-03-12T03:34:42.001Z,63.59
2023-03-12T03:37:09.129Z,61.39
2023-03-12T03:39:36.056Z,59.80
2023-03-12T03:42:03.074Z,60.60
2023-03-12T03:44:30.683Z,59.78
2023-03-12T03:46:58.026Z,58.90
2023-03-12T03:49:25.772Z,58.50
2023-03-12T03:51:52.800Z,58.02
2023-03-12T03:54:20.064Z,57.24
2023-03-12T03:56:47.781Z,56.72
2023-03-12T03:59:15.332Z,56.24
2023-03-12T04:01:42.415Z,54.85
2023-03-12T04:04:09.302Z,54.39
2023-03-12T04:06:36.228Z,53.91
2023-03-12T04:09:03.434Z,53.12
2023-03-12T04:11:30.521Z,54.62
2023-03-12T04:13:58.714Z,56.31
2023-03-12T04:16:25.834Z,56.35
2023-03-12T04:18:52.688Z,57.16
2023-03-12T04:21:19.994Z,55.80
2023-03-12T04:23:46.865Z,54.66
2023-03-12T04:26:13.946Z,55.88
2023-03-12T04:28:40.863Z,56.35
2023-03-12T04:31:08.799Z,54.92
2023-03-12T04:33:38.805Z,55.58
2023-03-12T04:36:06.926Z,55.31
2023-03-12T04:38:34.443Z,54.31
2023-03-12T04:41:08.204Z,55.72
2023-03-12T04:43:35.673Z,55.44
2023-03-12T04:46:03.086Z,54.70
2023-03-12T04:48:29.995Z,54.65
2023-03-12T04:50:57.154Z,55.20
2023-03-12T04:53:24.856Z,55.42
2023-03-12T04:55:52.063Z,55.58
2023-03-12T04:58:20.136Z,59.20
2023-03-12T05:00:49.022Z,57.87
2023-03-12T05:03:16.695Z,56.53
2023-03-12T05:05:43.785Z,56.43
2023-03-12T05:08:10.743Z,56.76
2023-03-12T05:10:37.614Z,56.40
2023-03-12T05:13:04.555Z,57.93
2023-03-12T05:15:31.476Z,56.62
2023-03-12T05:17:58.372Z,56.39
2023-03-12T05:20:25.509Z,57.20
2023-03-12T05:22:52.642Z,57.22
2023-03-12T05:25:19.527Z,57.07
2023-03-12T05:27:46.361Z,59.02
2023-03-12T05:30:13.584Z,58.52
2023-03-12T05:32:40.587Z,58.06
2023-03-12T05:35:08.130Z,58.62
2023-03-12T05:37:34.977Z,58.12
2023-03-12T05:40:01.893Z,58.68
2023-03-12T05:42:28.838Z,57.84
2023-03-12T05:44:55.715Z,57.56
2023-03-12T05:47:22.798Z,56.11
2023-03-12T05:49:49.880Z,55.51
2023-03-12T05:52:17.017Z,53.80
2023-03-12T05:54:43.966Z,51.97
2023-03-12T05:57:13.372Z,50.43
2023-03-12T05:59:40.389Z,49.20
2023-03-12T06:02:07.870Z,48.09
2023-03-12T06:04:34.881Z,46.17
2023-03-12T06:07:01.853Z,44.66
2023-03-12T06:09:28.763Z,43.28
2023-03-12T06:11:55.822Z,41.42
2023-03-12T06:14:22.861Z,38.83
2023-03-12T06:16:49.835Z,36.18
2023-03-12T06:19:16.816Z,34.26
2023-03-12T06:21:44.381Z,32.84
2023-03-12T06:24:11.302Z,32.92
2023-03-12T06:26:38.327Z,33.26
2023-03-12T06:29:05.206Z,33.42
2023-03-12T06:31:32.207Z,33.79
2023-03-12T06:33:59.137Z,33.87
2023-03-12T06:36:26.263Z,34.20
2023-03-12T06:38:55.853Z,34.24
2023-03-12T06:41:23.994Z,34.13
2023-03-12T06:43:50.960Z,35.17
2023-03-12T06:46:22.008Z,35.38
2023-03-12T06:48:49.640Z,34.37
2023-03-12T06:51:17.588Z,34.60
2023-03-12T06:53:45.675Z,33.99
2023-03-12T06:56:13.348Z,33.74
2023-03-12T06:58:40.428Z,33.37
2023-03-12T07:01:07.941Z,33.72
2023-03-12T07:03:35.089Z,34.07
2023-03-12T07:06:02.115Z,32.67
2023-03-12T07:08:32.675Z,33.07
2023-03-12T07:11:01.669Z,34.79
2023-03-12T07:13:29.489Z,32.79
2023-03-12T07:15:56.514Z,33.78
2023-03-12T07:18:23.512Z,33.15
2023-03-12T07:20:50.384Z,32.31
2023-03-12T07:23:17.208Z,36.90
2023-03-12T07:25:45.038Z,36.22
2023-03-12T07:28:13.017Z,39.63
2023-03-12T07:30:40.735Z,38.60
2023-03-12T07:33:10.766Z,37.12
2023-03-12T07:35:41.434Z,36.86
2023-03-12T07:38:09.369Z,36.12
2023-03-12T07:40:37.035Z,36.24
2023-03-12T07:43:07.160Z,40.48
2023-03-12T07:45:34.308Z,38.80
2023-03-12T07:48:01.195Z,36.80
2023-03-12T07:50:28.113Z,37.23
2023-03-12T07:52:55.072Z,38.49
2023-03-12T07:55:22.106Z,37.73
2023-03-12T07:57:49.312Z,36.08
2023-03-12T08:00:17.364Z,36.41
2023-03-12T08:02:44.708Z,36.33
2023-03-12T08:05:12.037Z,36.29
2023-03-12T08:07:38.958Z,36.66
2023-03-12T08:10:08.306Z,37.97
2023-03-12T08:12:35.662Z,37.17
2023-03-12T08:15:02.571Z,35.92
2023-03-12T08:17:29.472Z,34.32
2023-03-12T08:19:56.569Z,33.37
2023-03-12T08:22:23.491Z,31.25
2023-03-12T08:24:50.386Z,31.24
2023-03-12T08:27:17.299Z,31.83
2023-03-12T08:29:44.150Z,30.19
2023-03-12T08:32:11.135Z,31.90
2023-03-12T08:34:38.336Z,30.91
2023-03-12T08:37:05.980Z,31.60
2023-03-12T08:39:33.569Z,32.17
2023-03-12T08:42:01.164Z,31.00
2023-03-12T08:44:28.216Z,29.03
2023-03-12T08:46:55.329Z,31.05
2023-03-12T08:49:23.087Z,32.69
2023-03-12T08:51:52.097Z,29.86
2023-03-12T08:54:20.637Z,32.10
2023-03-12T08:56:53.847Z,30.04
2023-03-12T08:59:22.574Z,28.62
2023-03-12T09:01:50.070Z,31.30
2023-03-12T09:04:17.258Z,29.36
2023-03-12T09:06:44.331Z,28.06
2023-03-12T09:09:11.803Z,27.59
2023-03-12T09:11:42.682Z,29.36
2023-03-12T09:16:58.383Z,29.36
2023-03-12T09:19:25.475Z,28.01
2023-03-12T09:21:52.517Z,31.70
2023-03-12T09:24:19.858Z,29.92
2023-03-12T09:26:47.031Z,29.80
2023-03-12T09:29:14.915Z,29.32
2023-03-12T09:31:41.960Z,28.94
2023-03-12T09:34:09.008Z,29.79
2023-03-12T09:36:36.248Z,28.62
2023-03-12T09:39:04.007Z,30.13
2023-03-12T09:41:35.674Z,29.94
2023-03-12T09:44:17.459Z,29.35
2023-03-12T09:46:51.166Z,28.46
2023-03-12T09:49:36.367Z,29.05
2023-03-12T09:52:13.506Z,28.15
2023-03-12T09:55:07.275Z,29.53
2023-03-12T09:57:34.602Z,28.30
2023-03-12T10:00:01.677Z,30.30
2023-03-12T10:03:05.438Z,29.42
2023-03-12T10:05:51.125Z,31.28
2023-03-12T10:08:32.192Z,32.86
2023-03-12T10:11:18.430Z,30.44
2023-03-12T10:14:12.149Z,31.97
2023-03-12T10:16:52.452Z,31.59
2023-03-12T10:19:25.323Z,34.67
2023-03-12T10:22:06.707Z,30.62
2023-03-12T10:25:00.195Z,31.77
2023-03-12T10:27:30.567Z,31.38
2023-03-12T10:29:58.494Z,31.89
2023-03-12T10:32:33.549Z,32.62
2023-03-12T10:35:14.799Z,33.54
2023-03-12T10:37:46.531Z,34.24
2023-03-12T10:40:16.990Z,34.16
2023-03-12T10:42:44.115Z,30.58
2023-03-12T10:45:10.978Z,31.23
2023-03-12T10:47:43.089Z,31.57
2023-03-12T10:50:28.671Z,30.50
2023-03-12T10:53:20.180Z,31.94
2023-03-12T10:56:20.480Z,32.41
2023-03-12T10:58:53.040Z,30.76
2023-03-12T11:01:26.420Z,30.74
2023-03-12T11:04:08.090Z,30.55
2023-03-12T11:06:35.977Z,29.57
2023-03-12T11:09:23.060Z,30.09
2023-03-12T11:11:51.297Z,29.84
2023-03-12T11:14:28.365Z,31.11
2023-03-12T11:16:56.990Z,29.95
2023-03-12T11:19:31.447Z,30.79
2023-03-12T11:22:05.028Z,31.12
2023-03-12T11:24:32.109Z,28.95
2023-03-12T11:27:25.658Z,31.75
2023-03-12T11:29:53.483Z,34.47
2023-03-12T11:32:31.774Z,33.26
2023-03-12T11:34:59.268Z,31.89
2023-03-12T11:37:26.184Z,30.40
2023-03-12T11:40:10.145Z,32.02
2023-03-12T11:42:36.970Z,33.12
2023-03-12T11:45:45.450Z,31.27
2023-03-12T11:48:48.503Z,32.54
2023-03-12T11:51:33.465Z,31.46
2023-03-12T11:54:28.390Z,31.48
2023-03-12T11:57:38.320Z,30.87
2023-03-12T12:00:19.034Z,31.54
2023-03-12T12:03:04.473Z,29.29
2023-03-12T12:06:01.354Z,28.16
2023-03-12T12:08:57.521Z,27.05
2023-03-12T12:11:31.500Z,28.40
2023-03-12T12:14:15.435Z,27.93
2023-03-12T12:16:54.481Z,27.74
2023-03-12T12:19:48.241Z,28.28
2023-03-12T12:22:33.633Z,26.80
2023-03-12T12:25:21.682Z,27.70
2023-03-12T12:28:07.021Z,26.55
2023-03-12T12:30:48.551Z,26.74
2023-03-12T12:33:24.060Z,28.32
2023-03-12T12:35:51.662Z,27.23
2023-03-12T12:38:30.693Z,24.65
2023-03-12T12:41:08.579Z,25.58
2023-03-12T12:43:38.553Z,24.52
2023-03-12T12:46:17.089Z,23.35
2023-03-12T12:48:51.832Z,23.65
2023-03-12T12:51:27.508Z,24.25
2023-03-12T12:54:23.892Z,25.67
2023-03-12T12:57:19.052Z,23.52
2023-03-12T12:59:52.351Z,24.18
2023-03-12T13:02:27.727Z,23.43
2023-03-12T13:04:59.255Z,22.68
2023-03-12T13:07:27.951Z,22.45
2023-03-12T13:09:57.998Z,22.21
2023-03-12T13:12:31.338Z,24.04
2023-03-12T13:14:59.842Z,22.89
2023-03-12T13:17:32.482Z,22.79
2023-03-12T13:20:18.075Z,23.31
2023-03-12T13:23:17.473Z,22.99
2023-03-12T13:26:06.756Z,21.76
2023-03-12T13:29:11.337Z,22.60
2023-03-12T13:31:39.820Z,20.75
2023-03-12T13:34:06.598Z,20.40
2023-03-12T13:36:37.801Z,21.27
2023-03-12T13:39:10.461Z,21.91
2023-03-12T13:41:40.338Z,22.90
2023-03-12T13:44:29.278Z,22.14
2023-03-12T13:47:05.520Z,21.82
2023-03-12T13:50:25.076Z,24.46
2023-03-12T13:53:08.660Z,25.19
2023-03-12T13:55:37.525Z,28.31
2023-03-12T13:58:07.415Z,27.74
2023-03-12T14:00:44.253Z,29.89
2023-03-12T14:03:31.601Z,29.27
2023-03-12T14:06:07.790Z,28.58
2023-03-12T14:09:06.078Z,31.22
2023-03-12T14:11:53.623Z,31.56
2023-03-12T14:14:49.083Z,31.68
2023-03-12T14:17:18.382Z,31.92
2023-03-12T14:19:56.645Z,30.72
2023-03-12T14:22:24.794Z,30.08
2023-03-12T14:24:57.452Z,27.93
2023-03-12T14:27:31.113Z,28.62
2023-03-12T14:30:20.785Z,27.05
2023-03-12T14:32:48.432Z,26.94
2023-03-12T14:35:26.065Z,27.35
2023-03-12T14:38:07.179Z,28.40
2023-03-12T14:41:00.859Z,27.60
2023-03-12T14:43:35.566Z,27.21
2023-03-12T14:46:13.725Z,27.99
2023-03-12T14:48:40.783Z,27.70
2023-03-12T14:51:08.320Z,27.81
2023-03-12T14:53:39.882Z,27.90
2023-03-12T14:56:12.990Z,27.22
2023-03-12T14:58:46.313Z,26.49
2023-03-12T15:01:26.280Z,26.10
2023-03-12T15:03:58.524Z,26.24
2023-03-12T15:06:31.237Z,26.81
2023-03-12T15:08:59.874Z,25.64
2023-03-12T15:11:29.142Z,25.84
2023-03-12T15:14:02.600Z,26.83
2023-03-12T15:16:29.940Z,29.08
2023-03-12T15:18:57.570Z,28.79
2023-03-12T15:21:24.901Z,28.88
2023-03-12T15:23:52.008Z,28.82
2023-03-12T15:26:22.123Z,29.76
2023-03-12T15:29:05.754Z,29.33
2023-03-12T15:31:43.079Z,30.04
2023-03-12T15:34:13.223Z,30.30
2023-03-12T15:36:49.040Z,29.46
2023-03-12T15:39:26.845Z,30.07
2023-03-12T15:41:55.697Z,29.82
2023-03-12T15:44:26.412Z,30.23
2023-03-12T15:46:57.197Z,29.48
2023-03-12T15:49:28.576Z,29.73
2023-03-12T15:52:04.017Z,29.53
2023-03-12T15:54:31.644Z,29.71
2023-03-12T15:57:34.687Z,30.37
2023-03-12T16:00:17.367Z,30.80
2023-03-12T16:02:57.842Z,30.73
2023-03-12T16:05:39.267Z,30.08
2023-03-12T16:08:22.918Z,30.12
2023-03-12T16:10:50.647Z,30.54
2023-03-12T16:13:23.289Z,30.29
2023-03-12T16:15:50.216Z,30.47
2023-03-12T16:18:20.098Z,30.58
2023-03-12T16:20:48.053Z,31.72
2023-03-12T16:23:16.014Z,31.43
2023-03-12T16:25:46.225Z,31.08
2023-03-12T16:28:18.797Z,31.23
2023-03-12T16:30:45.847Z,31.70
2023-03-12T16:33:15.518Z,31.74
2023-03-12T16:35:42.871Z,31.66
2023-03-12T16:38:09.863Z,31.02
2023-03-12T16:40:40.735Z,31.09
2023-03-12T16:43:15.802Z,31.17
2023-03-12T16:45:44.842Z,31.18
2023-03-12T16:48:15.796Z,32.02
2023-03-12T16:50:48.143Z,33.25
2023-03-12T16:53:15.189Z,34.71
2023-03-12T16:55:55.257Z,36.19
2023-03-12T16:58:24.149Z,37.69
2023-03-12T17:00:52.246Z,37.39
2023-03-12T17:03:36.061Z,37.31
2023-03-12T17:06:04.480Z,36.69
2023-03-12T17:08:31.491Z,36.44
2023-03-12T17:11:00.152Z,36.71
2023-03-12T17:13:29.342Z,37.06
2023-03-12T17:15:56.928Z,37.83
2023-03-12T17:18:24.151Z,37.91
2023-03-12T17:20:52.091Z,38.83
2023-03-12T17:23:19.461Z,38.57
2023-03-12T17:25:46.670Z,38.94
2023-03-12T17:28:15.574Z,38.14
2023-03-12T17:30:43.531Z,37.90
2023-03-12T17:33:14.350Z,38.25
2023-03-12T17:35:42.357Z,37.23
2023-03-12T17:38:09.995Z,37.79
2023-03-12T17:40:43.796Z,37.56
2023-03-12T17:43:10.830Z,37.29
2023-03-12T17:45:37.891Z,37.20
2023-03-12T17:48:05.032Z,37.10
2023-03-12T17:50:31.954Z,36.78
2023-03-12T17:52:58.792Z,36.77
2023-03-12T17:55:25.882Z,36.92
2023-03-12T17:57:52.824Z,37.20
2023-03-12T18:00:22.066Z,37.40
2023-03-12T18:02:49.465Z,38.00
2023-03-12T18:05:16.534Z,38.18
2023-03-12T18:07:43.461Z,38.26
2023-03-12T18:10:11.612Z,38.22
2023-03-12T18:12:40.343Z,38.12
2023-03-12T18:15:09.419Z,38.41
2023-03-12T18:17:36.389Z,38.72
2023-03-12T18:20:09.631Z,38.67
2023-03-12T18:22:38.794Z,38.91
2023-03-12T18:25:06.856Z,39.41
2023-03-12T18:27:33.821Z,40.53
2023-03-12T18:30:01.051Z,41.75
2023-03-12T18:32:27.946Z,41.70
2023-03-12T18:34:55.106Z,42.14
2023-03-12T18:37:23.186Z,42.42
2023-03-12T18:39:50.118Z,42.96
2023-03-12T18:42:17.575Z,43.63
2023-03-12T18:44:44.644Z,44.40
2023-03-12T18:47:11.518Z,44.51
2023-03-12T18:49:38.557Z,45.13
2023-03-12T18:52:05.671Z,44.62
2023-03-12T18:54:33.915Z,45.09
2023-03-12T18:57:01.598Z,44.09
2023-03-12T18:59:31.850Z,42.82
2023-03-12T19:01:59.307Z,43.30
2023-03-12T19:04:26.438Z,43.51
2023-03-12T19:06:53.491Z,45.34
2023-03-12T19:09:20.696Z,45.33
2023-03-12T19:11:48.872Z,45.37
2023-03-12T19:14:15.907Z,45.28
2023-03-12T19:16:42.925Z,45.47
2023-03-12T19:19:09.964Z,44.47
2023-03-12T19:21:36.890Z,45.55
2023-03-12T19:24:04.106Z,45.98
2023-03-12T19:26:31.150Z,45.82
2023-03-12T19:28:58.188Z,47.32
2023-03-12T19:31:25.795Z,47.53
2023-03-12T19:33:52.753Z,48.14
2023-03-12T19:36:19.923Z,47.82
2023-03-12T19:38:46.843Z,48.39
2023-03-12T19:41:13.824Z,49.97
2023-03-12T19:43:41.608Z,49.63
2023-03-12T19:46:08.785Z,49.73
2023-03-12T19:48:35.746Z,51.42
2023-03-12T19:51:10.581Z,51.05
2023-03-12T19:53:38.110Z,50.28
2023-03-12T19:56:05.635Z,51.71
2023-03-12T19:58:32.528Z,49.38
2023-03-12T20:01:03.832Z,48.73
2023-03-12T20:03:30.973Z,49.42
2023-03-12T20:05:57.904Z,49.81
2023-03-12T20:08:30.448Z,52.18
2023-03-12T20:11:09.133Z,54.58
2023-03-12T20:13:38.162Z,53.58
2023-03-12T20:16:06.944Z,55.48
2023-03-12T20:18:34.155Z,55.43
2023-03-12T20:21:01.130Z,54.29
2023-03-12T20:23:27.979Z,54.75
2023-03-12T20:25:54.911Z,53.34
2023-03-12T20:28:21.831Z,54.08
2023-03-12T20:30:49.425Z,53.52
2023-03-12T20:33:16.472Z,54.32
2023-03-12T20:35:43.407Z,54.29
2023-03-12T20:38:10.343Z,54.79
2023-03-12T20:40:37.838Z,54.37
2023-03-12T20:43:05.311Z,54.81
2023-03-12T20:45:33.536Z,58.15
2023-03-12T20:48:01.135Z,57.97
2023-03-12T20:50:29.157Z,57.44
2023-03-12T20:52:56.144Z,56.78
2023-03-12T20:55:23.234Z,56.28
2023-03-12T20:57:50.182Z,56.55
2023-03-12T21:00:17.838Z,58.89
2023-03-12T21:02:44.889Z,60.80
2023-03-12T21:05:31.658Z,61.11
2023-03-12T21:07:58.926Z,62.92
2023-03-12T21:10:25.878Z,64.01
2023-03-12T21:12:52.975Z,65.95
2023-03-12T21:15:19.941Z,62.68
2023-03-12T21:17:47.556Z,61.95
2023-03-12T21:20:17.336Z,60.80
2023-03-12T21:22:46.938Z,62.16
2023-03-12T21:25:38.584Z,62.64
2023-03-12T21:28:10.877Z,66.04
2023-03-12T21:30:41.957Z,64.24
2023-03-12T21:33:08.920Z,69.03
2023-03-12T21:35:35.872Z,65.38
2023-03-12T21:38:03.195Z,64.91
2023-03-12T21:40:30.134Z,63.01
2023-03-12T21:42:57.623Z,63.73
2023-03-12T21:45:25.809Z,61.44
2023-03-12T21:47:54.188Z,60.59
2023-03-12T21:50:21.319Z,61.17
2023-03-12T21:52:49.677Z,64.99
2023-03-12T21:55:17.893Z,64.47
2023-03-12T21:58:04.763Z,60.83
2023-03-12T22:00:36.991Z,63.13
2023-03-12T22:03:04.175Z,61.74
2023-03-12T22:05:31.636Z,63.94
2023-03-12T22:07:58.916Z,64.78
2023-03-12T22:10:26.265Z,65.06
2023-03-12T22:12:53.442Z,64.93
2023-03-12T22:15:20.295Z,63.89
2023-03-12T22:17:47.246Z,66.17
2023-03-12T22:20:14.153Z,63.83
2023-03-12T22:22:41.234Z,61.91
2023-03-12T22:25:08.801Z,66.47
2023-03-12T22:27:35.766Z,68.77
2023-03-12T22:30:02.649Z,67.03
2023-03-12T22:32:29.550Z,66.57
2023-03-12T22:34:56.521Z,67.19
2023-03-12T22:37:23.535Z,65.92
2023-03-12T22:39:51.653Z,65.96
2023-03-12T22:42:18.567Z,67.79
2023-03-12T22:44:45.474Z,70.88
2023-03-12T22:47:12.403Z,70.93
2023-03-12T22:49:39.394Z,70.83
2023-03-12T22:52:06.711Z,71.70
2023-03-12T22:54:33.670Z,73.41
2023-03-12T22:57:00.665Z,77.72
2023-03-12T22:59:27.614Z,75.09
2023-03-12T23:01:54.608Z,76.61
2023-03-12T23:04:21.658Z,73.28
2023-03-12T23:06:48.675Z,72.55
2023-03-12T23:09:15.648Z,76.80
2023-03-12T23:11:42.599Z,71.61
2023-03-12T23:14:09.581Z,74.52
2023-03-12T23:16:36.467Z,78.63
2023-03-12T23:19:03.598Z,77.11
2023-03-12T23:21:31.078Z,78.10
2023-03-12T23:23:59.994Z,76.67
2023-03-12T23:26:28.372Z,78.68
2023-03-12T23:28:57.224Z,78.09
2023-03-12T23:31:24.924Z,76.41
2023-03-12T23:33:52.357Z,75.15
2023-03-12T23:36:22.108Z,73.58
2023-03-12T23:38:49.956Z,72.11
2023-03-12T23:41:22.835Z,71.40
2023-03-12T23:43:50.195Z,72.66
2023-03-12T23:46:18.239Z,72.64
2023-03-12T23:48:45.947Z,74.16
2023-03-12T23:51:15.662Z,76.67
2023-03-12T23:53:44.949Z,75.94
2023-03-12T23:56:19.619Z,77.51
2023-03-12T23:58:47.386Z,75.47
